createdAt,value
2018-07-10T00:02:30.487Z,17.40
2018-07-10T00:06:46.734Z,17.40
2018-07-10T00:11:06.184Z,17.40
2018-07-10T00:15:09.418Z,17.30
2018-07-10T00:19:12.661Z,17.30
2018-07-10T00:23:15.952Z,17.30
2018-07-10T00:27:19.182Z,17.20
2018-07-10T00:31:22.413Z,17.20
2018-07-10T00:35:25.929Z,17.10
2018-07-10T00:39:29.181Z,17.20
2018-07-10T00:43:32.413Z,17.10
2018-07-10T00:47:35.668Z,17.10
2018-07-10T00:51:40.356Z,17.00
2018-07-10T00:55:43.613Z,17.00
2018-07-10T00:59:46.880Z,17.00
2018-07-10T01:03:50.373Z,17.00
2018-07-10T01:07:53.934Z,16.90
2018-07-10T01:11:57.188Z,16.90
2018-07-10T01:16:00.461Z,16.80
2018-07-10T01:20:03.719Z,16.80
2018-07-10T01:24:06.970Z,16.70
2018-07-10T01:28:10.209Z,16.60
2018-07-10T01:32:13.482Z,16.40
2018-07-10T01:36:16.725Z,16.10
2018-07-10T01:40:19.995Z,16.00
2018-07-10T01:44:23.220Z,15.90
2018-07-10T01:48:26.472Z,15.80
2018-07-10T01:56:32.809Z,15.80
2018-07-10T02:00:38.365Z,15.60
2018-07-10T02:04:41.620Z,15.50
2018-07-10T02:08:44.881Z,15.40
2018-07-10T02:12:48.116Z,15.40
2018-07-10T02:16:51.356Z,15.50
2018-07-10T02:20:57.470Z,15.50
2018-07-10T02:25:00.772Z,15.50
2018-07-10T02:29:04.020Z,15.50
2018-07-10T02:33:07.269Z,15.40
2018-07-10T02:37:10.532Z,15.30
2018-07-10T02:41:15.452Z,15.20
2018-07-10T02:45:18.962Z,15.10
2018-07-10T02:49:22.976Z,15.00
2018-07-10T02:53:28.973Z,15.10
2018-07-10T02:57:32.237Z,15.00
2018-07-10T03:01:35.580Z,15.00
2018-07-10T03:05:38.847Z,15.00
2018-07-10T03:09:42.147Z,15.00
2018-07-10T03:13:45.403Z,15.10
2018-07-10T03:17:48.904Z,15.00
2018-07-10T03:21:52.178Z,15.00
2018-07-10T03:25:55.412Z,15.10
2018-07-10T03:29:59.416Z,15.00
2018-07-10T03:34:09.221Z,15.00
2018-07-10T03:38:12.485Z,15.00
2018-07-10T03:42:16.844Z,15.00
2018-07-10T03:50:23.059Z,15.00
2018-07-10T03:54:26.337Z,14.90
2018-07-10T03:58:29.592Z,15.00
2018-07-10T04:02:33.165Z,14.90
2018-07-10T04:06:36.469Z,15.00
2018-07-10T04:14:44.456Z,14.90
2018-07-10T04:18:47.717Z,15.00
2018-07-10T04:22:55.601Z,15.10
2018-07-10T04:28:06.501Z,15.20
2018-07-10T04:32:12.597Z,15.30
2018-07-10T04:40:19.452Z,15.20
2018-07-10T04:44:26.609Z,15.20
2018-07-10T04:52:35.336Z,15.20
2018-07-10T04:56:43.681Z,15.20
2018-07-10T05:00:50.397Z,15.20
2018-07-10T05:08:57.090Z,15.40
2018-07-10T05:13:02.132Z,15.40
2018-07-10T05:17:05.362Z,15.30
2018-07-10T05:21:12.305Z,15.40
2018-07-10T05:25:15.557Z,15.50
2018-07-10T05:29:18.814Z,15.50
2018-07-10T05:33:22.534Z,15.40
2018-07-10T05:37:33.919Z,15.40
2018-07-10T05:41:40.154Z,15.60
2018-07-10T05:45:44.045Z,15.80
2018-07-10T05:49:47.958Z,16.00
2018-07-10T05:53:51.214Z,16.00
2018-07-10T05:57:54.637Z,16.10
2018-07-10T06:01:57.893Z,16.30
2018-07-10T06:10:04.114Z,16.20
2018-07-10T06:14:07.478Z,15.90
2018-07-10T06:18:10.697Z,15.60
2018-07-10T06:22:13.919Z,15.60
2018-07-10T06:30:20.200Z,15.70
2018-07-10T06:34:33.180Z,15.70
2018-07-10T06:38:41.767Z,15.70
2018-07-10T06:43:51.713Z,15.60
2018-07-10T06:47:54.976Z,16.00
2018-07-10T06:52:13.945Z,16.20
2018-07-10T06:56:25.648Z,16.90
2018-07-10T07:00:28.920Z,17.40
2018-07-10T07:04:32.176Z,17.50
2018-07-10T07:08:35.435Z,17.20
2018-07-10T07:12:39.431Z,16.80
2018-07-10T07:16:42.678Z,16.60
2018-07-10T07:20:45.960Z,16.50
2018-07-10T07:24:49.213Z,16.80
2018-07-10T07:28:52.474Z,17.00
2018-07-10T07:36:58.694Z,17.40
2018-07-10T07:41:01.949Z,17.40
2018-07-10T07:45:05.202Z,17.60
2018-07-10T07:49:08.442Z,17.70
2018-07-10T07:53:11.697Z,17.60
2018-07-10T08:01:18.423Z,17.20
2018-07-10T08:09:24.641Z,17.60
2018-07-10T08:13:27.911Z,17.80
2018-07-10T08:17:33.077Z,18.10
2018-07-10T08:21:36.321Z,18.60
2018-07-10T08:25:39.578Z,18.20
2018-07-10T08:33:45.914Z,18.30
2018-07-10T08:37:49.150Z,18.40
2018-07-10T08:41:52.413Z,18.30
2018-07-10T08:45:55.670Z,18.40
2018-07-10T08:49:58.918Z,18.30
2018-07-10T08:54:02.173Z,18.10
2018-07-10T08:58:05.434Z,18.30
2018-07-10T09:02:08.754Z,18.90
2018-07-10T09:06:12.005Z,18.80
2018-07-10T09:10:15.238Z,19.40
2018-07-10T09:18:21.437Z,19.50
2018-07-10T09:26:27.689Z,19.50
2018-07-10T09:30:30.966Z,19.50
2018-07-10T09:34:34.214Z,19.00
2018-07-10T09:38:37.472Z,18.50
2018-07-10T09:42:45.450Z,18.30
2018-07-10T09:46:48.707Z,18.40
2018-07-10T09:50:51.948Z,18.70
2018-07-10T09:54:56.004Z,18.80
2018-07-10T09:58:59.188Z,18.80
2018-07-10T10:03:03.213Z,18.30
2018-07-10T10:07:06.705Z,18.00
2018-07-10T10:11:09.966Z,17.90
2018-07-10T10:15:13.221Z,18.00
2018-07-10T10:19:16.468Z,18.00
2018-07-10T10:23:19.705Z,18.00
2018-07-10T10:27:24.512Z,18.20
2018-07-10T10:31:27.780Z,18.30
2018-07-10T10:35:31.166Z,18.40
2018-07-10T10:39:34.422Z,18.30
2018-07-10T10:43:37.695Z,18.20
2018-07-10T10:47:40.945Z,18.10
2018-07-10T10:51:44.201Z,18.50
2018-07-10T10:55:47.561Z,19.00
2018-07-10T10:59:51.413Z,19.10
2018-07-10T11:03:54.681Z,19.00
2018-07-10T11:07:58.394Z,19.10
2018-07-10T11:12:01.633Z,19.20
2018-07-10T11:20:26.214Z,18.50
2018-07-10T11:33:11.633Z,17.80
2018-07-10T11:37:14.881Z,17.80
2018-07-10T11:41:18.158Z,17.80
2018-07-10T11:45:21.429Z,18.30
2018-07-10T11:49:24.668Z,18.30
2018-07-10T11:53:27.913Z,18.30
2018-07-10T11:57:31.434Z,18.40
2018-07-10T12:01:35.588Z,18.50
2018-07-10T12:05:39.544Z,18.70
2018-07-10T12:14:50.153Z,18.00
2018-07-10T12:22:56.769Z,17.90
2018-07-10T12:31:03.536Z,18.20
2018-07-10T12:35:07.977Z,18.10
2018-07-10T12:39:11.220Z,18.10
2018-07-10T12:43:14.461Z,18.00
2018-07-10T12:47:17.692Z,17.90
2018-07-10T12:51:20.952Z,17.60
2018-07-10T12:55:25.082Z,16.70
2018-07-10T12:59:28.342Z,16.20
2018-07-10T13:03:31.605Z,16.00
2018-07-10T13:07:34.862Z,15.80
2018-07-10T13:15:41.178Z,15.60
2018-07-10T13:19:44.421Z,15.50
2018-07-10T13:23:47.653Z,15.60
2018-07-10T13:27:51.153Z,15.90
2018-07-10T13:31:54.402Z,16.30
2018-07-10T13:40:01.936Z,17.10
2018-07-10T13:48:08.198Z,18.20
2018-07-10T13:52:11.814Z,18.50
2018-07-10T13:56:15.190Z,18.90
2018-07-10T14:00:18.762Z,18.90
2018-07-10T14:08:25.022Z,18.40
2018-07-10T14:12:28.548Z,18.50
2018-07-10T14:16:31.789Z,18.70
2018-07-10T14:24:45.502Z,18.70
2018-07-10T14:28:48.734Z,19.40
2018-07-10T14:32:51.993Z,19.80
2018-07-10T14:36:55.244Z,20.00
2018-07-10T14:41:01.143Z,20.50
2018-07-10T14:49:08.557Z,20.10
2018-07-10T14:53:11.809Z,20.90
2018-07-10T14:57:15.069Z,22.10
2018-07-10T15:01:18.316Z,21.00
2018-07-10T15:05:21.700Z,20.20
2018-07-10T15:09:25.401Z,19.40
2018-07-10T15:13:29.001Z,19.10
2018-07-10T15:17:37.733Z,18.80
2018-07-10T15:21:41.005Z,18.70
2018-07-10T15:25:44.271Z,18.90
2018-07-10T15:33:50.549Z,18.90
2018-07-10T15:37:53.806Z,19.00
2018-07-10T15:41:57.177Z,19.20
2018-07-10T15:50:03.412Z,20.30
2018-07-10T15:54:07.081Z,20.00
2018-07-10T15:58:10.332Z,19.50
2018-07-10T16:02:13.616Z,19.20
2018-07-10T16:06:16.955Z,18.90
2018-07-10T16:10:20.122Z,18.80
2018-07-10T16:18:28.810Z,18.70
2018-07-10T16:22:34.557Z,18.70
2018-07-10T16:26:37.808Z,18.40
2018-07-10T16:30:41.095Z,18.10
2018-07-10T16:34:44.360Z,18.00
2018-07-10T16:38:47.614Z,18.10
2018-07-10T16:42:52.978Z,18.20
2018-07-10T16:47:18.760Z,18.20
2018-07-10T16:51:27.158Z,18.40
2018-07-10T16:55:30.413Z,18.50
2018-07-10T16:59:33.687Z,18.70
2018-07-10T17:07:40.136Z,18.70
2018-07-10T17:11:43.386Z,18.30
2018-07-10T17:15:46.641Z,18.10
2018-07-10T17:19:50.034Z,18.10
2018-07-10T17:23:54.550Z,18.30
2018-07-10T17:27:57.797Z,18.50
2018-07-10T17:32:01.057Z,18.50
2018-07-10T17:36:04.314Z,18.90
2018-07-10T17:40:07.579Z,19.20
2018-07-10T17:44:13.075Z,19.40
2018-07-10T17:48:16.353Z,19.20
2018-07-10T17:52:19.666Z,18.50
2018-07-10T17:56:25.734Z,17.60
2018-07-10T18:00:29.039Z,16.70
2018-07-10T18:04:32.293Z,15.70
2018-07-10T18:08:35.564Z,15.40
2018-07-10T18:12:38.832Z,15.00
2018-07-10T18:16:42.105Z,14.30
2018-07-10T18:20:45.406Z,14.10
2018-07-10T18:24:48.645Z,14.20
2018-07-10T18:28:52.220Z,14.50
2018-07-10T18:32:55.471Z,14.60
2018-07-10T18:36:59.871Z,14.70
2018-07-10T18:41:03.312Z,15.00
2018-07-10T18:45:07.503Z,15.00
2018-07-10T18:49:10.750Z,15.10
2018-07-10T18:53:14.070Z,15.00
2018-07-10T18:58:27.328Z,15.20
2018-07-10T19:02:43.635Z,15.10
2018-07-10T19:06:46.989Z,15.20
2018-07-10T19:14:55.422Z,15.20
2018-07-10T19:19:03.359Z,15.20
2018-07-10T19:23:10.083Z,15.30
2018-07-10T19:27:24.315Z,15.10
2018-07-10T19:31:31.434Z,14.90
2018-07-10T19:35:34.745Z,14.70
2018-07-10T19:39:38.871Z,14.50
2018-07-10T19:43:43.728Z,14.50
2018-07-10T19:47:47.561Z,14.40
2018-07-10T19:51:50.828Z,14.40
2018-07-10T19:55:54.089Z,14.20
2018-07-10T19:59:57.349Z,14.10
2018-07-10T20:04:05.286Z,14.00
2018-07-10T20:08:13.334Z,14.00
2018-07-10T20:12:18.832Z,14.10
2018-07-10T20:16:39.293Z,14.30
2018-07-10T20:20:39.378Z,14.40
2018-07-10T20:24:50.441Z,14.40
2018-07-10T20:33:54.075Z,14.40
2018-07-10T20:37:59.056Z,14.50
2018-07-10T20:42:04.978Z,14.50
2018-07-10T20:46:10.668Z,14.60
2018-07-10T20:50:17.235Z,14.60
2018-07-10T20:54:40.918Z,14.60
2018-07-10T20:58:48.999Z,14.50
2018-07-10T21:03:04.622Z,14.50
2018-07-10T21:07:14.117Z,14.40
2018-07-10T21:11:21.825Z,14.40
2018-07-10T21:15:36.378Z,14.30
2018-07-10T21:19:47.584Z,14.20
2018-07-10T21:23:58.416Z,13.90
2018-07-10T21:28:08.346Z,13.80
2018-07-10T21:32:20.793Z,13.50
2018-07-10T21:37:31.980Z,13.40
2018-07-10T21:41:44.475Z,13.30
2018-07-10T21:46:59.621Z,13.10
2018-07-10T21:55:05.859Z,12.80
2018-07-10T21:59:10.248Z,12.70
2018-07-10T22:07:16.567Z,12.60
2018-07-10T22:11:19.797Z,12.50
2018-07-10T22:15:23.087Z,12.40
2018-07-10T22:19:28.446Z,12.40
2018-07-10T22:23:31.723Z,12.30
2018-07-10T22:27:37.090Z,12.20
2018-07-10T22:35:48.812Z,12.10
2018-07-10T22:39:52.071Z,12.20
2018-07-10T22:43:55.336Z,12.20
2018-07-10T22:47:58.595Z,12.20
2018-07-10T22:52:02.621Z,12.10
2018-07-10T22:56:05.891Z,12.00
2018-07-10T23:00:09.360Z,11.90
2018-07-10T23:08:17.132Z,11.90
2018-07-10T23:12:20.400Z,11.80
2018-07-10T23:16:24.987Z,11.80
2018-07-10T23:20:28.241Z,11.70
2018-07-10T23:24:31.829Z,11.70
2018-07-10T23:28:35.086Z,11.70
2018-07-10T23:32:38.339Z,11.60
2018-07-10T23:36:41.600Z,11.60
2018-07-10T23:40:44.836Z,11.60
2018-07-10T23:44:48.100Z,11.50
2018-07-10T23:48:54.089Z,11.60
2018-07-10T23:53:35.340Z,11.60
2018-07-10T23:57:38.589Z,11.50
